Huvudsida
METAR-TAF:

METAR-TAF

Flygplatser :

Ventspils lidosta

Ventspils, Lettland

latitud: 57-21-28N, longitud: 021-32-39E, höjd: 6 m

Aktuellt väderrapport

Denna rapport gjordes för 36 minuter sedan, klockan 09:20 UTC
Vind 15 kt från sydväst
Temperatur 5°C
Fuktighet 70%
Tryck 1023 hPa
Sikt 10 km eller mer
Inga moln under 1 500 m eller inga cumulonimbus

METAR: EVVA 200920Z AUTO 23015KT CAVOK 05/00 Q1023

Tid: 11:56 (09:56 UTC)


TAF: saknas

Aktuella väderrapporter och prognoser från 4000 flygplatser (METAR- och TAF-rapporter).

De tillgängliga stationerna syns som gula och röda prickar på kartan.

För musen över prickarna för att se namnen på stationerna.

Klicka sedan för att få väderrapporter och prognoser.

För att ändra kartan: Klicka på de gröna knapparna med ett svart kors på för att zooma in; den gröna knappen med ett streck på för att zooma ut; eller på de gröna pilarna för angränsande kartor.


METAR-TAF: